Time;durP1;ratioP1;P1;durP2;ratioP2;P2;SDS_P1;SDS_P2;PMS_P1;PMS_P2;Temp;Humidity;BMP_temperature;BMP_pressure;BME280_temperature;BME280_humidity;BME280_pressure;Samples;Min_cycle;Max_cycle;Signal;HPM_P1;HPM_P2
2021/12/14 00:01:03;;;;;;;0.50;0.50;;;;;;;2.11;75.14;94860.56;2616174;47;20172;-74
2021/12/14 00:03:54;;;;;;;0.53;0.53;;;;;;;2.25;74.13;94833.56;2616203;47;20668;-73
2021/12/14 00:06:38;;;;;;;0.40;0.40;;;;;;;0.20;70.89;94604.16;2615765;47;20149;-73
2021/12/14 00:09:24;;;;;;;1.13;1.13;;;;;;;0.02;72.51;94627.94;2615955;54;20200;-74
2021/12/14 00:12:37;;;;;;;1.07;1.07;;;;;;;-0.42;73.07;94581.72;2615999;54;20240;-74
2021/12/14 00:15:19;;;;;;;0.63;0.63;;;;;;;0.66;73.46;94698.63;2615987;54;20159;-74
2021/12/14 00:18:00;;;;;;;0.40;0.40;;;;;;;-0.73;75.91;94490.53;2615676;54;20191;-75
2021/12/14 00:21:00;;;;;;;0.50;0.50;;;;;;;1.34;75.40;94796.72;2616172;54;20152;-75
2021/12/14 00:26:48;;;;;;;0.40;0.40;;;;;;;1.54;74.88;94870.66;2616289;47;20149;-74
2021/12/14 00:29:35;;;;;;;0.50;0.50;;;;;;;-0.63;71.83;94554.50;2615997;47;20153;-73
2021/12/14 00:32:31;;;;;;;3.23;1.23;;;;;;;1.32;73.56;94867.06;2616376;39;20526;-74
2021/12/14 00:35:20;;;;;;;0.70;0.70;;;;;;;1.10;74.95;94884.28;2615805;54;20183;-73
2021/12/14 00:38:01;;;;;;;0.50;0.50;;;;;;;-0.28;75.95;94679.41;2615847;54;20153;-73
2021/12/14 00:40:52;;;;;;;;;;;;;;;;;;;;;
2021/12/14 00:43:44;;;;;;;0.60;0.60;;;;;;;0.41;73.51;94696.16;2616264;54;20280;-74
2021/12/14 00:46:20;;;;;;;0.57;0.57;;;;;;;0.14;76.16;94637.88;2615614;46;20231;-74
2021/12/14 00:54:46;;;;;;;0.40;0.40;;;;;;;-0.82;75.71;94499.59;2616056;47;20149;-74
2021/12/14 00:57:36;;;;;;;0.40;0.40;;;;;;;-0.79;72.89;94503.28;2615988;54;20160;-74
2021/12/14 01:00:23;;;;;;;0.60;0.60;;;;;;;-1.26;73.26;94477.69;2617393;54;20161;-74
2021/12/14 01:03:25;;;;;;;0.77;0.77;;;;;;;-0.89;72.89;94514.41;2618922;47;20140;-73
2021/12/14 01:21:43;;;;;;;0.50;0.50;;;;;;;1.32;73.75;94679.41;2616462;46;20157;-72
2021/12/14 01:24:42;;;;;;;0.97;0.97;;;;;;;0.50;74.60;94581.19;2616677;54;20160;-73
2021/12/14 01:30:44;;;;;;;;;;;;;;;;;;;;;
2021/12/14 01:40:02;;;;;;;0.40;0.40;;;;;;;2.93;72.41;94883.38;2615392;47;20157;-73
2021/12/14 01:49:07;;;;;;;0.43;0.43;;;;;;;1.08;76.36;94630.34;2616305;47;20171;-74
2021/12/14 01:51:58;;;;;;;0.60;0.60;;;;;;;1.08;70.00;94627.56;2616302;47;20157;-74
2021/12/14 01:54:37;;;;;;;0.50;0.50;;;;;;;0.18;70.58;94601.22;2616426;46;20157;-74
2021/12/14 02:06:57;;;;;;;0.97;0.97;;;;;;;2.24;71.44;94867.69;2615794;47;20662;-74
2021/12/14 02:09:34;;;;;;;0.60;0.60;;;;;;;2.58;73.19;94878.38;2616314;46;20153;-74
2021/12/14 02:15:42;;;;;;;;;;;;;;;;;;;;;
2021/12/14 02:18:57;;;;;;;0.70;0.70;;;;;;;2.92;74.87;94873.53;2616340;54;20164;-74
2021/12/14 02:25:16;;;;;;;0.50;0.50;;;;;;;0.96;70.85;94560.53;2615149;47;20159;-76
2021/12/14 02:28:11;;;;;;;0.53;0.53;;;;;;;2.29;70.87;94872.97;2614430;47;20157;-73
2021/12/14 02:31:14;;;;;;;;;;;;;;;;;;;;;
2021/12/14 02:36:53;;;;;;;0.30;0.30;;;;;;;0.81;72.40;94588.81;2616197;47;20203;-73
2021/12/14 02:40:13;;;;;;;0.60;0.60;;;;;;;2.50;75.47;94777.91;2616292;47;20180;-73
2021/12/14 02:49:31;;;;;;;0.70;0.70;;;;;;;0.98;70.30;94543.94;2615580;39;20540;-74
2021/12/14 02:55:17;;;;;;;0.50;0.50;;;;;;;1.38;74.68;94674.22;2616220;47;20249;-74
2021/12/14 02:58:05;;;;;;;0.53;0.53;;;;;;;2.46;72.06;94881.06;2616411;46;20153;-74
2021/12/14 03:06:35;;;;;;;0.40;0.40;;;;;;;2.18;67.50;94722.75;2617290;46;20157;-72
2021/12/14 03:09:38;;;;;;;0.50;0.50;;;;;;;3.51;75.83;94892.69;2619061;39;20565;-75
2021/12/14 03:12:47;;;;;;;;;;;;;;;;;;;;;
2021/12/14 03:15:32;;;;;;;0.50;0.50;;;;;;;1.75;70.34;94680.16;2616347;54;20145;-73
2021/12/14 03:18:55;;;;;;;0.70;0.70;;;;;;;1.14;69.08;94561.00;2615910;47;20228;-73
2021/12/14 03:21:45;;;;;;;0.90;0.90;;;;;;;3.39;69.17;94888.41;2615466;47;20172;-74
2021/12/14 03:24:32;;;;;;;0.60;0.60;;;;;;;2.37;71.23;94744.91;2616178;54;20149;-75
2021/12/14 03:27:21;;;;;;;0.37;0.37;;;;;;;2.96;70.37;94888.50;2616210;47;20148;-73
2021/12/14 03:30:11;;;;;;;0.60;0.60;;;;;;;2.08;71.27;94733.25;2616249;54;20151;-73
2021/12/14 03:33:00;;;;;;;0.90;0.90;;;;;;;1.28;74.33;94693.06;2615398;47;20253;-73
2021/12/14 03:36:09;;;;;;;0.50;0.50;;;;;;;2.35;73.33;94753.16;2615656;47;20145;-73
2021/12/14 03:39:03;;;;;;;0.70;0.70;;;;;;;3.36;69.75;94895.22;2616440;47;20153;-73
2021/12/14 03:44:53;;;;;;;;;;;;;;;;;;;;;
2021/12/14 03:47:52;;;;;;;0.60;0.60;;;;;;;2.51;74.05;94773.03;2616496;54;20171;-73
2021/12/14 04:00:09;;;;;;;0.50;0.50;;;;;;;0.94;70.47;94566.00;2615633;47;20160;-74
2021/12/14 04:06:13;;;;;;;0.67;0.67;;;;;;;2.89;70.39;94911.09;2616076;47;20158;-74
2021/12/14 04:09:16;;;;;;;;;;;;;;;;;;;;;
2021/12/14 04:12:11;;;;;;;1.90;1.07;;;;;;;-0.51;71.74;94557.41;2616240;54;20175;-72
2021/12/14 04:15:06;;;;;;;0.63;0.63;;;;;;;0.17;75.40;94569.88;2616049;54;20149;-73
2021/12/14 04:21:16;;;;;;;1.13;1.13;;;;;;;3.54;73.52;94913.88;2615946;47;20157;-74
2021/12/14 04:24:26;;;;;;;;;;;;;;;;;;;;;
2021/12/14 04:27:19;;;;;;;0.70;0.70;;;;;;;2.26;68.20;94776.34;2616185;54;20164;-74
2021/12/14 04:33:14;;;;;;;1.07;1.07;;;;;;;1.40;69.16;94694.59;2615941;47;20191;-74
2021/12/14 04:36:02;;;;;;;;;;;;;;;;;;;;;
2021/12/14 04:39:06;;;;;;;0.73;0.73;;;;;;;-0.16;71.93;94566.91;2616725;54;20169;-74
2021/12/14 04:56:54;;;;;;;0.60;0.60;;;;;;;2.59;70.07;94851.88;2616274;54;20268;-73
2021/12/14 04:59:44;;;;;;;0.70;0.70;;;;;;;2.56;70.67;94922.97;2617024;47;20156;-73
2021/12/14 05:02:44;;;;;;;0.50;0.50;;;;;;;3.01;76.73;94920.25;2616816;54;20160;-74
2021/12/14 05:11:30;;;;;;;0.80;0.80;;;;;;;2.49;73.68;94778.50;2617451;46;20171;-74
2021/12/14 05:14:33;;;;;;;;;;;;;;;;;;;;;
2021/12/14 05:17:32;;;;;;;0.80;0.80;;;;;;;2.39;72.43;94780.66;2617440;46;20164;-76
2021/12/14 05:23:19;;;;;;;0.60;0.60;;;;;;;3.70;71.99;94933.00;2617448;47;20181;-73
2021/12/14 05:26:11;;;;;;;0.60;0.60;;;;;;;2.21;68.83;94771.09;2617275;54;20145;-74
2021/12/14 05:29:02;;;;;;;0.70;0.70;;;;;;;3.42;73.79;94887.91;2617484;46;20162;-75
2021/12/14 15:58:25;;;;;;;5.63;3.33;;;;;;;4.25;66.16;94674.28;2614124;47;20157;-75
2021/12/14 16:00:58;;;;;;;2.47;2.37;;;;;;;6.75;66.37;95028.47;2614706;47;20554;-74
2021/12/14 16:03:28;;;;;;;1.60;1.60;;;;;;;6.15;69.09;94986.56;2616483;54;20152;-75
2021/12/14 16:05:57;;;;;;;3.00;2.80;;;;;;;7.00;71.04;95035.34;2616375;54;20153;-73
2021/12/14 16:08:32;;;;;;;2.73;2.50;;;;;;;5.29;66.92;94776.09;2616562;54;20157;-74
2021/12/14 16:11:19;;;;;;;1.80;1.77;;;;;;;7.36;68.95;95028.78;2616618;47;20140;-73
2021/12/14 16:16:35;;;;;;;2.50;2.40;;;;;;;7.15;67.93;95012.19;2616731;47;20148;-73
2021/12/14 16:19:04;;;;;;;1.43;1.43;;;;;;;7.40;68.37;95039.50;2616831;54;20156;-73
2021/12/14 16:21:33;;;;;;;1.13;1.13;;;;;;;6.62;65.14;94969.34;2616548;47;20152;-73
2021/12/14 16:30:45;;;;;;;5.70;2.77;;;;;;;6.85;70.74;94943.78;2616410;47;20118;-76
2021/12/14 16:33:20;;;;;;;1.57;1.47;;;;;;;5.78;67.38;94741.41;2615364;47;20164;-76
2021/12/14 16:36:24;;;;;;;2.80;2.30;;;;;;;7.28;67.13;95034.00;2616171;54;20149;-79
2021/12/14 16:39:00;;;;;;;2.17;2.03;;;;;;;4.76;67.19;94707.22;2616063;54;20141;-74
2021/12/14 16:41:32;;;;;;;2.03;1.97;;;;;;;5.95;62.49;94946.84;2616226;46;20272;-75
2021/12/14 16:44:11;;;;;;;3.03;2.73;;;;;;;5.94;69.56;95034.63;2616629;54;20149;-74
2021/12/14 16:53:49;;;;;;;1.60;1.53;;;;;;;6.05;69.27;95036.63;2615813;47;20192;-76
2021/12/14 16:57:27;;;;;;;;;;;;;;;;;;;;;
2021/12/14 17:07:23;;;;;;;6.70;1.53;;;;;;;3.25;67.11;94697.91;2611613;47;20124;-78
2021/12/14 17:16:40;;;;;;;1.17;1.17;;;;;;;5.32;72.11;94996.72;2615105;39;20553;-75
2021/12/14 17:19:13;;;;;;;1.13;1.13;;;;;;;6.00;68.78;95077.88;2616197;54;20153;-75
2021/12/14 17:22:00;;;;;;;2.20;2.10;;;;;;;4.81;65.05;94911.66;2615698;54;20167;-75
2021/12/14 17:25:25;;;;;;;1.73;1.63;;;;;;;3.56;70.92;94683.63;2615633;54;20155;-73
2021/12/14 17:31:00;;;;;;;3.17;2.33;;;;;;;4.88;67.91;94843.31;2615059;47;20157;-74
2021/12/14 17:33:51;;;;;;;1.63;0.97;;;;;;;5.25;64.25;94884.66;2616690;31;20645;-74
2021/12/14 17:42:36;;;;;;;1.27;1.27;;;;;;;5.94;66.95;95038.16;2615989;47;20230;-72
2021/12/14 17:45:10;;;;;;;1.23;1.07;;;;;;;4.69;71.46;94939.00;2616200;54;20149;-72
2021/12/14 17:47:51;;;;;;;2.07;2.07;;;;;;;5.22;68.42;94958.91;2615686;46;20152;-72
2021/12/14 17:50:39;;;;;;;3.30;1.83;;;;;;;5.31;72.92;95064.75;2616568;39;20303;-72
2021/12/14 17:53:16;;;;;;;3.07;2.87;;;;;;;4.91;67.44;95055.41;2615964;54;20183;-72
2021/12/14 17:55:58;;;;;;;3.07;2.97;;;;;;;5.18;71.75;95062.56;2615939;47;20156;-73
2021/12/14 17:58:30;;;;;;;2.35;2.08;;;;;;;4.53;71.85;95034.16;2615581;54;20380;-73
2021/12/14 18:12:12;;;;;;;1.67;1.57;;;;;;;4.46;68.97;95079.28;2615626;47;21023;-74
2021/12/14 18:14:57;;;;;;;0.93;0.93;;;;;;;4.51;68.96;95081.00;2615200;47;20680;-73
2021/12/14 18:17:39;;;;;;;1.37;1.37;;;;;;;4.53;74.95;95067.81;2616522;54;20152;-74
2021/12/14 18:20:34;;;;;;;;;;;;;;;;;;;;;
2021/12/14 18:23:32;;;;;;;1.30;1.20;;;;;;;3.57;68.89;94893.06;2616338;54;20163;-75
2021/12/14 18:26:18;;;;;;;1.97;1.80;;;;;;;3.78;72.09;94937.06;2616363;54;20161;-69
2021/12/14 18:29:20;;;;;;;2.93;2.63;;;;;;;5.12;74.01;95096.63;2615888;47;20247;-73
2021/12/14 18:34:59;;;;;;;0.87;0.87;;;;;;;3.87;70.21;95011.88;2615221;47;20656;-73
2021/12/14 18:41:01;;;;;;;2.47;2.37;;;;;;;1.24;70.21;94710.25;2614162;47;20802;-75
2021/12/14 18:46:35;;;;;;;1.43;1.43;;;;;;;2.48;71.95;94870.03;2615894;47;20170;-78
